createdAt,value
2018-11-22T00:00:42.692Z,1.39
2018-11-22T00:01:44.068Z,1.49
2018-11-22T00:02:45.436Z,1.44
2018-11-22T00:03:46.814Z,1.50
2018-11-22T00:04:48.188Z,1.53
2018-11-22T00:05:49.562Z,1.49
2018-11-22T00:06:50.928Z,1.54
2018-11-22T00:07:52.297Z,1.52
2018-11-22T00:08:53.671Z,1.50
2018-11-22T00:09:55.048Z,1.50
2018-11-22T00:10:56.413Z,1.43
2018-11-22T00:11:57.785Z,1.38
2018-11-22T00:12:59.149Z,1.44
2018-11-22T00:14:00.519Z,1.36
2018-11-22T00:15:01.897Z,1.44
2018-11-22T00:16:03.265Z,1.44
2018-11-22T00:17:04.637Z,1.50
2018-11-22T00:18:06.015Z,1.43
2018-11-22T00:19:07.383Z,1.35
2018-11-22T00:20:08.765Z,1.50
2018-11-22T00:21:10.128Z,1.43
2018-11-22T00:22:11.504Z,1.47
2018-11-22T00:23:12.876Z,1.54
2018-11-22T00:24:14.254Z,1.53
2018-11-22T00:25:15.621Z,1.43
2018-11-22T00:26:16.985Z,1.44
2018-11-22T00:27:18.360Z,1.44
2018-11-22T00:28:19.730Z,1.39
2018-11-22T00:29:21.096Z,1.44
2018-11-22T00:30:22.476Z,1.42
2018-11-22T00:31:23.856Z,1.38
2018-11-22T00:32:25.222Z,1.44
2018-11-22T00:33:26.598Z,1.39
2018-11-22T00:34:27.968Z,1.38
2018-11-22T00:35:29.333Z,1.44
2018-11-22T00:36:30.710Z,1.44
2018-11-22T00:37:32.076Z,1.47
2018-11-22T00:38:33.451Z,1.43
2018-11-22T00:39:34.830Z,1.43
2018-11-22T00:40:36.210Z,1.29
2018-11-22T00:41:37.580Z,1.39
2018-11-22T00:42:38.956Z,1.47
2018-11-22T00:43:40.323Z,1.39
2018-11-22T00:44:41.680Z,1.38
2018-11-22T00:45:43.059Z,1.43
2018-11-22T00:46:44.430Z,1.42
2018-11-22T00:47:45.801Z,1.47
2018-11-22T00:48:47.171Z,1.38
2018-11-22T00:49:48.544Z,1.42
2018-11-22T00:50:49.920Z,1.43
2018-11-22T00:51:51.288Z,1.50
2018-11-22T00:52:52.655Z,1.44
2018-11-22T00:53:54.025Z,1.47
2018-11-22T00:54:55.396Z,1.53
2018-11-22T00:55:56.770Z,1.42
2018-11-22T00:56:58.146Z,1.42
2018-11-22T00:57:59.514Z,1.42
2018-11-22T00:59:00.880Z,1.44
2018-11-22T01:00:02.252Z,1.38
2018-11-22T01:01:03.621Z,1.39
2018-11-22T01:02:04.992Z,1.39
2018-11-22T01:03:06.361Z,1.43
2018-11-22T01:04:07.736Z,1.44
2018-11-22T01:05:09.098Z,1.42
2018-11-22T01:06:10.474Z,1.42
2018-11-22T01:07:11.843Z,1.34
2018-11-22T01:08:13.216Z,1.44
2018-11-22T01:09:14.591Z,1.46
2018-11-22T01:10:15.962Z,1.42
2018-11-22T01:11:17.342Z,1.46
2018-11-22T01:12:18.711Z,1.42
2018-11-22T01:13:20.090Z,1.44
2018-11-22T01:14:21.454Z,1.44
2018-11-22T01:15:22.844Z,1.42
2018-11-22T01:16:24.197Z,1.43
2018-11-22T01:17:25.578Z,1.49
2018-11-22T01:18:26.940Z,1.49
2018-11-22T01:19:28.323Z,1.39
2018-11-22T01:20:29.690Z,1.47
2018-11-22T01:21:31.064Z,1.44
2018-11-22T01:22:32.438Z,1.44
2018-11-22T01:23:33.801Z,1.42
2018-11-22T01:24:35.172Z,1.38
2018-11-22T01:25:36.535Z,1.43
2018-11-22T01:26:37.918Z,1.56
2018-11-22T01:27:39.292Z,1.44
2018-11-22T01:28:40.655Z,1.49
2018-11-22T01:29:42.028Z,1.38
2018-11-22T01:30:43.404Z,1.49
2018-11-22T01:31:44.780Z,1.38
2018-11-22T01:32:46.154Z,1.43
2018-11-22T01:33:47.524Z,1.43
2018-11-22T01:34:48.912Z,1.39
2018-11-22T01:35:50.268Z,1.46
2018-11-22T01:36:51.643Z,1.43
2018-11-22T01:37:53.017Z,1.46
2018-11-22T01:38:54.379Z,1.49
2018-11-22T01:39:55.759Z,1.52
2018-11-22T01:40:57.125Z,1.60
2018-11-22T01:41:58.495Z,1.49
2018-11-22T01:42:59.867Z,1.53
2018-11-22T01:44:01.239Z,1.53
2018-11-22T01:45:02.602Z,1.50
2018-11-22T01:46:03.981Z,1.50
2018-11-22T01:47:05.352Z,1.54
2018-11-22T01:48:06.721Z,1.50
2018-11-22T01:49:08.094Z,1.61
2018-11-22T01:50:09.468Z,1.56
2018-11-22T01:51:10.843Z,1.47
2018-11-22T01:52:12.217Z,1.43
2018-11-22T01:53:13.590Z,1.44
2018-11-22T01:54:14.970Z,1.38
2018-11-22T01:55:16.334Z,1.46
2018-11-22T01:56:17.702Z,1.43
2018-11-22T01:57:19.079Z,1.39
2018-11-22T01:58:20.453Z,1.42
2018-11-22T01:59:21.833Z,1.36
2018-11-22T02:00:23.217Z,1.39
2018-11-22T02:01:24.579Z,1.53
2018-11-22T02:02:25.944Z,1.49
2018-11-22T02:03:27.323Z,1.47
2018-11-22T02:04:28.692Z,1.52
2018-11-22T02:05:30.067Z,1.54
2018-11-22T02:06:31.443Z,1.38
2018-11-22T02:07:32.805Z,1.53
2018-11-22T02:08:34.193Z,1.44
2018-11-22T02:09:35.562Z,1.44
2018-11-22T02:10:36.931Z,1.47
2018-11-22T02:11:38.303Z,1.46
2018-11-22T02:12:39.677Z,1.46
2018-11-22T02:13:41.045Z,1.43
2018-11-22T02:14:42.417Z,1.44
2018-11-22T02:15:43.791Z,1.42
2018-11-22T02:16:45.158Z,1.49
2018-11-22T02:17:46.537Z,1.47
2018-11-22T02:18:47.906Z,1.47
2018-11-22T02:19:49.282Z,1.46
2018-11-22T02:20:50.650Z,1.43
2018-11-22T02:21:52.024Z,1.42
2018-11-22T02:22:53.387Z,1.42
2018-11-22T02:23:54.766Z,1.46
2018-11-22T02:24:56.148Z,1.52
2018-11-22T02:25:57.510Z,1.49
2018-11-22T02:26:58.882Z,1.47
2018-11-22T02:28:00.263Z,1.44
2018-11-22T02:29:01.628Z,1.39
2018-11-22T02:30:03.004Z,1.52
2018-11-22T02:31:04.379Z,1.47
2018-11-22T02:32:05.746Z,1.50
2018-11-22T02:33:07.131Z,1.46
2018-11-22T02:34:08.497Z,1.42
2018-11-22T02:35:09.862Z,1.44
2018-11-22T02:36:11.242Z,1.44
2018-11-22T02:37:12.618Z,1.38
2018-11-22T02:38:13.983Z,1.42
2018-11-22T02:39:15.347Z,1.42
2018-11-22T02:40:16.732Z,1.39
2018-11-22T02:41:18.095Z,1.44
2018-11-22T02:42:19.463Z,1.47
2018-11-22T02:43:20.834Z,1.46
2018-11-22T02:44:22.206Z,1.44
2018-11-22T02:45:23.584Z,1.44
2018-11-22T02:46:24.958Z,1.42
2018-11-22T02:47:26.325Z,1.42
2018-11-22T02:48:27.698Z,1.44
2018-11-22T02:49:29.066Z,1.43
2018-11-22T02:50:30.442Z,1.47
2018-11-22T02:51:31.800Z,1.49
2018-11-22T02:52:33.180Z,1.43
2018-11-22T02:53:34.544Z,1.46
2018-11-22T02:54:35.916Z,1.46
2018-11-22T02:55:37.286Z,1.47
2018-11-22T02:56:38.655Z,1.47
2018-11-22T02:57:40.031Z,1.42
2018-11-22T02:58:41.417Z,1.43
2018-11-22T02:59:42.790Z,1.46
2018-11-22T03:00:44.157Z,1.42
2018-11-22T03:01:45.530Z,1.43
2018-11-22T03:02:46.907Z,1.44
2018-11-22T03:03:48.273Z,1.46
2018-11-22T03:04:49.643Z,1.42
2018-11-22T03:05:51.025Z,1.49
2018-11-22T03:06:52.399Z,1.39
2018-11-22T03:07:53.779Z,1.42
2018-11-22T03:08:55.149Z,1.34
2018-11-22T03:09:56.519Z,1.36
2018-11-22T03:10:57.894Z,1.32
2018-11-22T03:11:59.259Z,1.29
2018-11-22T03:13:00.635Z,1.34
2018-11-22T03:14:02.010Z,1.34
2018-11-22T03:15:03.379Z,1.34
2018-11-22T03:16:04.754Z,1.24
2018-11-22T03:17:06.122Z,1.35
2018-11-22T03:18:07.490Z,1.35
2018-11-22T03:19:08.866Z,1.38
2018-11-22T03:20:10.234Z,1.49
2018-11-22T03:21:11.596Z,1.39
2018-11-22T03:22:12.979Z,1.42
2018-11-22T03:23:14.356Z,1.44
2018-11-22T03:24:15.726Z,1.36
2018-11-22T03:25:17.098Z,1.42
2018-11-22T03:26:18.465Z,1.47
2018-11-22T03:27:19.837Z,1.46
2018-11-22T03:28:21.211Z,1.42
2018-11-22T03:29:22.583Z,1.49
2018-11-22T03:30:23.957Z,1.46
2018-11-22T03:31:25.335Z,1.38
2018-11-22T03:32:26.703Z,1.36
2018-11-22T03:33:28.082Z,1.36
2018-11-22T03:34:29.454Z,1.31
2018-11-22T03:35:30.819Z,1.34
2018-11-22T03:36:32.181Z,1.34
2018-11-22T03:37:33.560Z,1.42
2018-11-22T03:38:34.925Z,1.36
2018-11-22T03:39:36.298Z,1.32
2018-11-22T03:40:37.672Z,1.36
2018-11-22T03:41:39.040Z,1.32
2018-11-22T03:42:40.412Z,1.35
2018-11-22T03:43:41.784Z,1.39
2018-11-22T03:44:43.152Z,1.34
2018-11-22T03:45:44.529Z,1.26
2018-11-22T03:46:45.907Z,1.35
2018-11-22T03:47:47.274Z,1.21
2018-11-22T03:48:48.642Z,1.25
2018-11-22T03:49:50.558Z,1.34
2018-11-22T03:50:51.392Z,1.29
2018-11-22T03:51:52.762Z,1.32
2018-11-22T03:52:54.141Z,1.32
2018-11-22T03:53:55.518Z,1.34
2018-11-22T03:54:56.877Z,1.39
2018-11-22T03:55:58.247Z,1.39
2018-11-22T03:56:59.611Z,1.34
2018-11-22T03:58:00.985Z,1.32
2018-11-22T03:59:02.359Z,1.34
2018-11-22T04:00:03.736Z,1.28
2018-11-22T04:01:05.108Z,1.32
2018-11-22T04:02:06.483Z,1.34
2018-11-22T04:03:07.848Z,1.35
2018-11-22T04:04:09.209Z,1.35
2018-11-22T04:05:10.579Z,1.38
2018-11-22T04:06:11.954Z,1.34
2018-11-22T04:07:13.330Z,1.28
2018-11-22T04:08:14.700Z,1.25
2018-11-22T04:09:16.082Z,1.20
2018-11-22T04:10:17.455Z,1.29
2018-11-22T04:11:18.814Z,1.24
2018-11-22T04:12:20.186Z,1.24
2018-11-22T04:13:21.557Z,1.28
2018-11-22T04:14:22.931Z,1.24
2018-11-22T04:15:24.311Z,1.32
2018-11-22T04:16:25.668Z,1.20
2018-11-22T04:17:27.046Z,1.24
2018-11-22T04:18:28.408Z,1.25
2018-11-22T04:19:29.787Z,1.35
2018-11-22T04:20:31.151Z,1.20
2018-11-22T04:21:32.527Z,1.31
2018-11-22T04:22:33.901Z,1.21
2018-11-22T04:23:35.269Z,1.28
2018-11-22T04:24:36.641Z,1.24
2018-11-22T04:25:38.009Z,1.21
2018-11-22T04:26:39.373Z,1.24
2018-11-22T04:27:40.748Z,1.24
2018-11-22T04:28:42.124Z,1.21
2018-11-22T04:29:43.489Z,1.11
2018-11-22T04:30:44.868Z,1.08
2018-11-22T04:31:46.241Z,1.16
2018-11-22T04:32:47.607Z,1.07
2018-11-22T04:33:48.989Z,1.06
2018-11-22T04:34:50.369Z,1.06
2018-11-22T04:35:51.745Z,1.11
2018-11-22T04:36:53.120Z,1.08
2018-11-22T04:37:54.496Z,1.04
2018-11-22T04:38:55.864Z,0.99
2018-11-22T04:39:57.236Z,1.08
2018-11-22T04:40:58.614Z,1.02
2018-11-22T04:41:59.983Z,1.08
2018-11-22T04:43:01.345Z,1.00
2018-11-22T04:44:02.728Z,1.10
2018-11-22T04:45:04.086Z,1.17
2018-11-22T04:46:05.462Z,1.02
2018-11-22T04:47:06.819Z,1.10
2018-11-22T04:48:08.193Z,1.14
2018-11-22T04:49:09.574Z,1.11
2018-11-22T04:50:10.937Z,1.07
2018-11-22T04:51:12.307Z,1.04
2018-11-22T04:52:13.676Z,1.02
2018-11-22T04:53:15.055Z,1.06
2018-11-22T04:54:16.421Z,1.02
2018-11-22T04:55:17.785Z,0.99
2018-11-22T04:56:19.158Z,1.08
2018-11-22T04:57:20.536Z,1.08
2018-11-22T04:58:21.910Z,1.04
2018-11-22T04:59:23.279Z,1.06
2018-11-22T05:00:24.652Z,1.08
2018-11-22T05:01:26.054Z,1.10
2018-11-22T05:02:27.396Z,1.13
2018-11-22T05:03:28.762Z,1.07
2018-11-22T05:04:30.708Z,1.08
2018-11-22T05:05:31.510Z,1.10
2018-11-22T05:06:32.882Z,1.08
2018-11-22T05:07:34.260Z,1.08
2018-11-22T05:08:35.624Z,1.06
2018-11-22T05:09:36.990Z,1.10
2018-11-22T05:10:38.361Z,1.08
2018-11-22T05:11:39.736Z,1.11
2018-11-22T05:12:41.100Z,1.04
2018-11-22T05:13:42.474Z,1.07
2018-11-22T05:14:43.850Z,1.07
2018-11-22T05:15:45.214Z,0.96
2018-11-22T05:16:46.587Z,1.04
2018-11-22T05:17:47.961Z,0.93
2018-11-22T05:18:49.329Z,0.99
2018-11-22T05:19:50.695Z,1.00
2018-11-22T05:20:52.075Z,1.04
2018-11-22T05:21:53.447Z,0.98
2018-11-22T05:22:54.815Z,1.06
2018-11-22T05:23:56.190Z,1.07
2018-11-22T05:24:57.558Z,1.10
2018-11-22T05:25:58.937Z,1.07
2018-11-22T05:27:00.304Z,1.08
2018-11-22T05:28:01.681Z,1.08
2018-11-22T05:29:03.052Z,1.10
2018-11-22T05:30:04.435Z,1.06
2018-11-22T05:31:05.808Z,1.07
2018-11-22T05:32:07.170Z,1.02
2018-11-22T05:33:08.533Z,0.99
2018-11-22T05:34:09.909Z,1.06
2018-11-22T05:35:11.278Z,1.08
2018-11-22T05:36:12.650Z,1.06
2018-11-22T05:37:14.016Z,1.07
2018-11-22T05:38:15.396Z,1.08
2018-11-22T05:39:16.766Z,1.13
2018-11-22T05:40:18.128Z,1.08
2018-11-22T05:41:19.501Z,1.06
2018-11-22T05:42:21.758Z,1.04
2018-11-22T05:43:23.137Z,1.10
2018-11-22T05:44:24.502Z,1.10
2018-11-22T05:45:25.873Z,0.99
2018-11-22T05:46:27.249Z,0.96
2018-11-22T05:47:28.614Z,0.90
2018-11-22T05:48:29.993Z,0.92
2018-11-22T05:49:31.351Z,1.00
2018-11-22T05:50:32.729Z,0.98
2018-11-22T05:51:34.531Z,0.95
2018-11-22T05:52:35.905Z,0.92
2018-11-22T05:53:37.281Z,0.95
2018-11-22T05:54:38.660Z,0.98
2018-11-22T05:55:40.022Z,0.96
2018-11-22T05:56:41.391Z,0.96
2018-11-22T05:57:42.764Z,0.98
2018-11-22T05:58:44.127Z,0.95
2018-11-22T05:59:45.500Z,0.88
2018-11-22T06:00:46.872Z,1.00
2018-11-22T06:01:48.240Z,0.96
2018-11-22T06:02:49.627Z,0.99
2018-11-22T06:03:50.990Z,0.95
2018-11-22T06:04:52.365Z,0.95
2018-11-22T06:05:53.736Z,1.00
2018-11-22T06:06:55.107Z,0.95
2018-11-22T06:07:56.475Z,0.99
2018-11-22T06:08:57.850Z,1.07
2018-11-22T06:09:59.220Z,1.10
2018-11-22T06:11:00.585Z,1.04
2018-11-22T06:12:01.958Z,1.18
2018-11-22T06:13:03.329Z,1.13
2018-11-22T06:14:04.695Z,1.17
2018-11-22T06:15:06.074Z,1.00
2018-11-22T06:16:07.444Z,1.00
2018-11-22T06:17:08.820Z,0.98
2018-11-22T06:18:10.195Z,1.04
2018-11-22T06:19:11.571Z,0.90
2018-11-22T06:20:12.953Z,1.04
2018-11-22T06:21:14.323Z,0.84
2018-11-22T06:22:15.687Z,0.99
2018-11-22T06:23:17.057Z,0.95
2018-11-22T06:24:18.449Z,1.04
2018-11-22T06:25:20.419Z,0.96
2018-11-22T06:26:21.784Z,0.95
2018-11-22T06:27:23.166Z,0.95
2018-11-22T06:28:24.530Z,0.89
2018-11-22T06:29:25.905Z,0.98
2018-11-22T06:30:27.278Z,0.88
2018-11-22T06:31:28.648Z,0.90
2018-11-22T06:32:30.023Z,0.90
2018-11-22T06:33:31.390Z,0.95
2018-11-22T06:34:32.766Z,0.88
2018-11-22T06:35:34.140Z,0.96
2018-11-22T06:36:35.511Z,0.98
2018-11-22T06:37:36.888Z,0.89
2018-11-22T06:38:38.264Z,1.07
2018-11-22T06:39:39.628Z,1.00
2018-11-22T06:40:41.007Z,0.98
2018-11-22T06:41:42.384Z,1.00
2018-11-22T18:35:53.963Z,0.64
2018-11-22T18:37:00.976Z,0.62
2018-11-22T18:38:02.562Z,0.57
2018-11-22T18:39:03.932Z,0.67
2018-11-22T18:40:05.301Z,0.57
2018-11-22T18:41:06.665Z,0.68
2018-11-22T18:42:08.160Z,0.56
2018-11-22T18:43:09.531Z,0.57
2018-11-22T18:44:10.898Z,0.62
2018-11-22T18:45:12.267Z,0.67
2018-11-22T18:46:13.886Z,0.68
2018-11-22T18:47:15.248Z,0.62
2018-11-22T18:48:16.660Z,0.64
2018-11-22T18:49:18.029Z,0.70
2018-11-22T18:50:19.397Z,0.64
2018-11-22T18:51:20.761Z,0.81
2018-11-22T18:52:22.138Z,0.80
2018-11-22T18:53:24.047Z,0.78
2018-11-22T18:54:25.411Z,0.89
2018-11-22T18:55:26.781Z,0.89
2018-11-22T18:56:28.152Z,0.92
2018-11-22T18:57:29.524Z,0.93
2018-11-22T18:58:31.095Z,0.93
2018-11-22T18:59:32.473Z,0.89
2018-11-22T19:00:33.974Z,0.84
2018-11-22T19:01:35.348Z,0.72
2018-11-22T19:02:36.733Z,0.80
2018-11-22T19:03:38.109Z,0.74
2018-11-22T19:04:39.491Z,0.74
2018-11-22T19:05:40.864Z,0.72
2018-11-22T19:06:42.238Z,0.84
2018-11-22T19:07:43.606Z,0.78
2018-11-22T19:08:44.971Z,0.82
2018-11-22T19:09:46.341Z,0.82
2018-11-22T19:10:47.705Z,0.89
2018-11-22T19:11:49.073Z,0.93
2018-11-22T19:12:50.450Z,0.95
2018-11-22T19:13:51.824Z,0.96
2018-11-22T19:14:53.193Z,0.99
2018-11-22T19:15:54.577Z,0.98
2018-11-22T19:16:55.941Z,1.02
2018-11-22T19:17:57.316Z,0.92
2018-11-22T19:18:58.682Z,0.89
2018-11-22T19:20:00.077Z,0.93
2018-11-22T19:21:01.443Z,0.93
2018-11-22T19:22:02.825Z,0.93
2018-11-22T19:23:04.192Z,0.96
2018-11-22T19:24:05.565Z,0.93
2018-11-22T19:25:06.935Z,0.95
2018-11-22T19:26:08.309Z,0.98
2018-11-22T19:27:09.677Z,0.96
2018-11-22T19:28:11.068Z,0.95
2018-11-22T19:29:12.433Z,0.92
2018-11-22T19:30:13.806Z,1.02
2018-11-22T19:31:15.187Z,0.99
2018-11-22T19:32:16.567Z,0.99
2018-11-22T19:33:17.939Z,0.95
2018-11-22T19:34:19.308Z,1.00
2018-11-22T19:35:20.673Z,0.98
2018-11-22T19:36:22.061Z,0.99
2018-11-22T19:37:23.435Z,0.95
2018-11-22T19:38:24.797Z,0.96
2018-11-22T19:39:26.169Z,0.93
2018-11-22T19:40:27.545Z,1.04
2018-11-22T19:41:28.907Z,0.89
2018-11-22T19:42:30.283Z,1.00
2018-11-22T19:43:31.659Z,1.07
2018-11-22T19:44:33.027Z,0.92
2018-11-22T19:45:34.403Z,1.04
2018-11-22T19:46:35.772Z,0.98
2018-11-22T19:47:37.138Z,0.95
2018-11-22T19:48:38.523Z,1.00
2018-11-22T19:49:39.892Z,0.95
2018-11-22T19:50:41.250Z,1.04
2018-11-22T19:51:42.626Z,0.95
2018-11-22T19:52:44.001Z,1.04
2018-11-22T19:53:45.379Z,0.96
2018-11-22T19:54:46.705Z,0.98
2018-11-22T19:55:48.073Z,0.96
2018-11-22T19:56:49.469Z,0.90
2018-11-22T19:57:50.836Z,0.92
2018-11-22T19:58:52.208Z,0.96
2018-11-22T19:59:53.581Z,0.92
2018-11-22T20:00:54.966Z,0.88
2018-11-22T20:01:56.360Z,0.86
2018-11-22T20:02:57.734Z,0.89
2018-11-22T20:03:59.103Z,0.95
2018-11-22T20:05:00.478Z,0.90
2018-11-22T20:06:01.852Z,0.89
2018-11-22T20:07:03.220Z,0.92
2018-11-22T20:08:04.585Z,0.92
2018-11-22T20:09:05.953Z,0.89
2018-11-22T20:10:07.354Z,0.92
2018-11-22T20:11:08.721Z,0.86
2018-11-22T20:12:10.097Z,0.84
2018-11-22T20:13:11.470Z,0.88
2018-11-22T20:14:12.841Z,0.88
2018-11-22T20:15:14.208Z,0.92
2018-11-22T20:16:15.582Z,0.93
2018-11-22T20:17:17.146Z,0.99
2018-11-22T20:18:18.558Z,0.96
2018-11-22T20:19:19.930Z,0.95
2018-11-22T20:20:21.296Z,0.92
2018-11-22T20:21:22.850Z,0.96
2018-11-22T20:22:24.286Z,0.90
2018-11-22T20:23:25.667Z,0.96
2018-11-22T20:24:27.060Z,1.06
2018-11-22T20:25:28.420Z,1.07
2018-11-22T20:26:29.990Z,1.06
2018-11-22T20:27:37.527Z,0.93
2018-11-22T20:28:38.839Z,0.90
2018-11-22T20:29:40.239Z,0.90
2018-11-22T20:30:41.602Z,0.90
2018-11-22T20:31:43.508Z,0.99
2018-11-22T20:32:44.875Z,0.96
2018-11-22T20:33:46.261Z,0.92
2018-11-22T20:34:47.628Z,0.90
2018-11-22T20:35:48.997Z,0.92
2018-11-22T20:36:50.429Z,0.86
2018-11-22T20:37:51.807Z,0.75
2018-11-22T20:38:53.385Z,0.81
2018-11-22T20:39:54.759Z,0.88
2018-11-22T20:40:57.380Z,0.81
2018-11-22T20:41:57.683Z,0.78
2018-11-22T20:42:59.080Z,0.80
2018-11-22T20:44:00.454Z,0.78
2018-11-22T20:45:01.833Z,0.75
2018-11-22T20:46:03.198Z,0.77
2018-11-22T20:47:04.567Z,0.74
2018-11-22T20:48:05.954Z,0.77
2018-11-22T20:49:07.334Z,0.80
2018-11-22T20:50:08.701Z,0.80
2018-11-22T20:51:10.062Z,0.80
2018-11-22T20:52:11.433Z,0.77
2018-11-22T20:53:12.817Z,0.80
2018-11-22T20:54:14.184Z,0.80
2018-11-22T20:55:15.604Z,0.82
2018-11-22T20:56:16.973Z,0.75
2018-11-22T20:57:18.335Z,0.80
2018-11-22T20:58:19.717Z,0.81
2018-11-22T20:59:21.271Z,0.80
2018-11-22T21:00:22.674Z,0.84
2018-11-22T21:01:24.040Z,0.77
2018-11-22T21:02:25.413Z,0.72
2018-11-22T21:03:26.787Z,0.78
2018-11-22T21:04:28.161Z,0.74
2018-11-22T21:05:29.548Z,0.78
2018-11-22T21:06:30.913Z,0.78
2018-11-22T21:07:32.285Z,0.78
2018-11-22T21:08:33.668Z,0.82
2018-11-22T21:09:35.030Z,0.82
2018-11-22T21:10:36.433Z,0.82
2018-11-22T21:11:43.274Z,0.72
2018-11-22T21:12:39.121Z,0.89
2018-11-22T21:13:40.509Z,0.78
2018-11-22T21:14:41.872Z,0.80
